createdAt,value
2018-01-17T00:04:46.217Z,1.40
2018-01-17T00:07:14.497Z,1.20
2018-01-17T00:09:42.797Z,1.30
2018-01-17T00:12:11.856Z,1.53
2018-01-17T00:14:40.178Z,1.47
2018-01-17T00:17:08.464Z,1.43
2018-01-17T00:19:36.767Z,1.40
2018-01-17T00:22:05.650Z,1.30
2018-01-17T00:24:34.036Z,1.33
2018-01-17T00:27:03.048Z,1.40
2018-01-17T00:29:31.627Z,1.33
2018-01-17T00:31:59.922Z,1.13
2018-01-17T00:34:28.222Z,1.23
2018-01-17T00:36:56.527Z,1.40
2018-01-17T00:39:24.824Z,1.40
2018-01-17T00:41:53.537Z,1.27
2018-01-17T00:44:21.860Z,1.20
2018-01-17T00:46:50.495Z,1.30
2018-01-17T00:49:19.621Z,1.20
2018-01-17T00:51:48.356Z,1.23
2018-01-17T00:54:16.702Z,1.70
2018-01-17T00:56:45.098Z,1.30
2018-01-17T00:59:13.412Z,1.37
2018-01-17T01:01:41.788Z,1.13
2018-01-17T01:04:10.129Z,1.30
2018-01-17T01:06:38.465Z,1.40
2018-01-17T01:09:07.189Z,1.40
2018-01-17T01:11:36.381Z,1.40
2018-01-17T01:14:04.703Z,1.50
2018-01-17T01:16:33.011Z,1.40
2018-01-17T01:19:01.489Z,1.33
2018-01-17T01:21:30.206Z,1.40
2018-01-17T01:23:58.529Z,1.23
2018-01-17T01:26:26.889Z,1.10
2018-01-17T01:28:55.258Z,1.70
2018-01-17T01:31:23.594Z,1.43
2018-01-17T01:33:51.968Z,1.37
2018-01-17T01:36:20.688Z,1.53
2018-01-17T01:38:49.038Z,1.20
2018-01-17T01:41:17.408Z,1.33
2018-01-17T01:43:46.569Z,1.40
2018-01-17T01:46:14.886Z,1.27
2018-01-17T01:48:54.978Z,1.27
2018-01-17T01:51:23.297Z,1.40
2018-01-17T01:53:52.049Z,1.30
2018-01-17T01:56:20.373Z,1.10
2018-01-17T01:58:49.077Z,1.47
2018-01-17T02:01:17.723Z,1.33
2018-01-17T02:03:46.457Z,1.20
2018-01-17T02:06:14.784Z,1.27
2018-01-17T02:08:43.405Z,1.10
2018-01-17T02:11:11.750Z,1.20
2018-01-17T02:13:40.084Z,1.30
2018-01-17T02:16:08.413Z,1.30
2018-01-17T02:18:37.206Z,1.23
2018-01-17T02:21:05.554Z,1.17
2018-01-17T02:23:33.869Z,1.30
2018-01-17T02:26:02.627Z,1.20
2018-01-17T02:28:30.961Z,1.10
2018-01-17T02:30:59.306Z,1.00
2018-01-17T02:33:28.058Z,1.63
2018-01-17T02:35:56.378Z,1.10
2018-01-17T02:38:24.693Z,1.33
2018-01-17T02:40:53.046Z,1.13
2018-01-17T02:43:21.693Z,1.20
2018-01-17T02:45:50.018Z,1.30
2018-01-17T02:48:18.373Z,1.37
2018-01-17T02:50:47.090Z,1.10
2018-01-17T02:53:15.429Z,1.30
2018-01-17T02:55:44.209Z,1.20
2018-01-17T02:58:12.558Z,1.10
2018-01-17T03:00:41.496Z,1.00
2018-01-17T03:03:09.889Z,0.93
2018-01-17T03:05:38.228Z,1.23
2018-01-17T03:08:06.568Z,1.10
2018-01-17T03:10:34.946Z,1.23
2018-01-17T03:13:03.281Z,1.10
2018-01-17T03:15:32.018Z,1.40
2018-01-17T03:18:00.636Z,1.20
2018-01-17T03:20:29.354Z,1.30
2018-01-17T03:22:57.669Z,1.00
2018-01-17T03:25:26.317Z,1.10
2018-01-17T03:27:54.965Z,1.40
2018-01-17T03:30:23.301Z,1.40
2018-01-17T03:32:51.974Z,1.10
2018-01-17T03:35:20.313Z,1.37
2018-01-17T03:37:49.297Z,1.00
2018-01-17T03:40:17.762Z,1.20
2018-01-17T03:42:46.106Z,1.40
2018-01-17T03:45:14.430Z,1.30
2018-01-17T03:47:42.824Z,1.07
2018-01-17T03:50:11.569Z,1.00
2018-01-17T03:52:39.886Z,1.07
2018-01-17T03:55:08.662Z,2.27
2018-01-17T03:57:36.989Z,1.60
2018-01-17T04:00:05.314Z,2.90
2018-01-17T04:02:33.668Z,2.17
2018-01-17T04:05:02.089Z,1.17
2018-01-17T04:07:30.961Z,2.50
2018-01-17T04:09:59.321Z,1.53
2018-01-17T04:12:27.861Z,2.00
2018-01-17T04:14:56.204Z,1.57
2018-01-17T04:17:24.650Z,2.37
2018-01-17T04:19:52.966Z,1.40
2018-01-17T04:22:21.688Z,1.63
2018-01-17T04:24:50.053Z,1.37
2018-01-17T04:27:18.390Z,1.40
2018-01-17T04:29:47.913Z,1.10
2018-01-17T04:32:16.697Z,1.40
2018-01-17T04:34:45.031Z,1.07
2018-01-17T04:37:13.349Z,1.40
2018-01-17T04:39:42.029Z,1.50
2018-01-17T04:42:10.370Z,1.50
2018-01-17T04:44:38.995Z,1.20
2018-01-17T04:47:08.048Z,1.37
2018-01-17T04:49:36.674Z,1.30
2018-01-17T04:52:05.000Z,1.13
2018-01-17T04:54:33.405Z,0.90
2018-01-17T04:57:02.014Z,1.20
2018-01-17T04:59:30.470Z,1.40
2018-01-17T05:01:58.789Z,1.30
2018-01-17T05:04:27.532Z,1.00
2018-01-17T05:06:55.877Z,1.10
2018-01-17T05:09:24.527Z,1.30
2018-01-17T05:11:53.517Z,1.50
2018-01-17T05:14:22.256Z,1.20
2018-01-17T05:16:51.058Z,1.10
2018-01-17T05:19:19.394Z,1.17
2018-01-17T05:21:47.733Z,1.20
2018-01-17T05:24:16.394Z,1.03
2018-01-17T05:26:45.261Z,1.50
2018-01-17T05:29:13.629Z,1.20
2018-01-17T05:31:42.348Z,1.10
2018-01-17T05:34:10.669Z,1.10
2018-01-17T05:36:39.448Z,1.33
2018-01-17T05:39:08.544Z,1.27
2018-01-17T05:41:36.900Z,1.10
2018-01-17T05:44:05.252Z,1.13
2018-01-17T05:46:33.600Z,1.10
2018-01-17T05:49:02.345Z,1.07
2018-01-17T05:51:31.098Z,1.30
2018-01-17T05:53:59.536Z,1.00
2018-01-17T05:56:27.884Z,1.20
2018-01-17T05:58:56.237Z,1.40
2018-01-17T06:01:24.875Z,1.00
2018-01-17T06:03:53.251Z,1.43
2018-01-17T06:06:21.578Z,1.10
2018-01-17T06:08:49.917Z,1.47
2018-01-17T06:11:18.585Z,1.20
2018-01-17T06:13:46.926Z,1.20
2018-01-17T06:16:15.270Z,1.03
2018-01-17T06:18:43.645Z,1.37
2018-01-17T06:21:11.975Z,1.20
2018-01-17T06:23:40.297Z,1.03
2018-01-17T06:26:09.074Z,1.30
2018-01-17T06:28:37.803Z,1.10
2018-01-17T06:31:06.131Z,1.20
2018-01-17T06:33:34.449Z,1.13
2018-01-17T06:36:02.824Z,1.23
2018-01-17T06:38:31.169Z,1.40
2018-01-17T06:40:59.913Z,1.23
2018-01-17T06:43:28.277Z,1.10
2018-01-17T06:45:56.648Z,1.10
2018-01-17T06:48:25.005Z,1.40
2018-01-17T06:50:53.731Z,1.23
2018-01-17T06:53:22.093Z,1.30
2018-01-17T06:55:50.734Z,1.30
2018-01-17T06:58:19.061Z,1.30
2018-01-17T07:00:47.466Z,1.10
2018-01-17T07:03:15.851Z,1.40
2018-01-17T07:05:44.324Z,1.10
2018-01-17T07:08:13.133Z,1.20
2018-01-17T07:10:41.479Z,1.73
2018-01-17T07:13:09.850Z,1.50
2018-01-17T07:15:38.201Z,1.50
2018-01-17T07:18:06.625Z,1.10
2018-01-17T07:20:34.993Z,1.57
2018-01-17T07:23:03.318Z,1.60
2018-01-17T07:25:32.073Z,1.40
2018-01-17T07:28:00.434Z,1.43
2018-01-17T07:30:28.829Z,1.87
2018-01-17T07:32:57.168Z,1.80
2018-01-17T07:35:25.578Z,1.50
2018-01-17T07:37:53.917Z,1.47
2018-01-17T07:40:22.261Z,1.30
2018-01-17T07:42:50.870Z,1.80
2018-01-17T07:45:19.184Z,1.60
2018-01-17T07:47:47.576Z,1.57
2018-01-17T07:50:15.921Z,1.27
2018-01-17T07:52:44.265Z,1.30
2018-01-17T07:55:13.041Z,1.53
2018-01-17T07:57:41.381Z,1.50
2018-01-17T08:00:09.704Z,1.60
2018-01-17T08:02:38.035Z,1.50
2018-01-17T08:05:06.368Z,1.57
2018-01-17T08:07:35.449Z,1.77
2018-01-17T08:10:03.907Z,1.80
2018-01-17T08:12:32.388Z,1.80
2018-01-17T08:15:01.137Z,1.40
2018-01-17T08:17:29.473Z,1.60
2018-01-17T08:19:57.928Z,1.47
2018-01-17T08:22:26.281Z,1.33
2018-01-17T08:24:54.638Z,1.60
2018-01-17T08:27:22.963Z,1.43
2018-01-17T08:29:51.343Z,1.80
2018-01-17T08:32:19.682Z,2.00
2018-01-17T08:34:48.017Z,1.60
2018-01-17T08:37:16.371Z,1.80
2018-01-17T08:39:44.714Z,1.80
2018-01-17T08:42:13.101Z,1.83
2018-01-17T08:44:41.427Z,1.90
2018-01-17T08:47:09.750Z,1.60
2018-01-17T08:49:38.100Z,1.73
2018-01-17T08:52:06.837Z,1.87
2018-01-17T08:54:35.164Z,1.83
2018-01-17T08:57:04.353Z,1.67
2018-01-17T08:59:33.128Z,1.97
2018-01-17T09:02:01.472Z,2.07
2018-01-17T09:04:29.861Z,1.97
2018-01-17T09:06:58.190Z,2.10
2018-01-17T09:09:26.928Z,2.00
2018-01-17T09:11:55.300Z,1.80
2018-01-17T09:14:23.662Z,1.70
2018-01-17T09:16:52.068Z,1.60
2018-01-17T09:19:20.431Z,1.97
2018-01-17T09:21:49.157Z,2.00
2018-01-17T09:24:17.551Z,1.87
2018-01-17T09:26:46.633Z,1.87
2018-01-17T09:29:15.406Z,1.60
2018-01-17T09:31:43.745Z,1.70
2018-01-17T09:34:12.106Z,1.83
2018-01-17T09:36:40.510Z,1.63
2018-01-17T09:39:08.855Z,2.30
2018-01-17T09:41:37.193Z,1.83
2018-01-17T09:44:05.541Z,2.10
2018-01-17T09:46:33.869Z,1.60
2018-01-17T09:49:02.194Z,1.80
2018-01-17T09:51:30.590Z,1.60
2018-01-17T09:53:58.903Z,1.63
2018-01-17T09:56:27.273Z,1.67
2018-01-17T09:58:56.173Z,1.37
2018-01-17T10:01:24.899Z,1.50
2018-01-17T10:03:53.257Z,1.53
2018-01-17T10:06:21.610Z,1.63
2018-01-17T10:08:49.951Z,1.50
2018-01-17T10:11:18.274Z,1.47
2018-01-17T10:13:47.005Z,1.83
2018-01-17T10:16:15.403Z,1.43
2018-01-17T10:18:43.773Z,1.70
2018-01-17T10:21:12.115Z,1.63
2018-01-17T10:23:40.478Z,2.00
2018-01-17T10:26:09.964Z,1.80
2018-01-17T10:28:38.307Z,12.93
2018-01-17T10:31:06.929Z,9.30
2018-01-17T10:33:36.485Z,7.97
2018-01-17T10:36:05.117Z,7.03
2018-01-17T10:38:34.205Z,7.10
2018-01-17T10:41:02.542Z,7.13
2018-01-17T10:43:30.865Z,6.47
2018-01-17T10:45:59.215Z,7.23
2018-01-17T10:48:27.530Z,6.10
2018-01-17T10:50:56.265Z,5.70
2018-01-17T10:53:24.894Z,6.33
2018-01-17T10:55:53.677Z,5.90
2018-01-17T10:58:22.030Z,6.00
2018-01-17T11:00:50.395Z,5.77
2018-01-17T11:03:18.730Z,5.13
2018-01-17T11:05:47.466Z,5.37
2018-01-17T11:08:16.167Z,4.93
2018-01-17T11:10:44.941Z,4.57
2018-01-17T11:13:13.301Z,4.80
2018-01-17T11:15:41.684Z,4.00
2018-01-17T11:18:10.066Z,4.70
2018-01-17T11:20:38.425Z,4.03
2018-01-17T11:23:07.069Z,4.10
2018-01-17T11:25:35.405Z,3.93
2018-01-17T11:28:03.726Z,3.80
2018-01-17T11:30:32.074Z,3.53
2018-01-17T11:33:01.373Z,3.40
2018-01-17T11:35:29.902Z,3.60
2018-01-17T11:37:58.629Z,3.50
2018-01-17T11:40:27.027Z,3.07
2018-01-17T11:42:55.363Z,2.97
2018-01-17T11:45:23.703Z,2.70
2018-01-17T11:47:52.056Z,3.00
2018-01-17T11:50:20.378Z,3.03
2018-01-17T11:52:49.157Z,2.63
2018-01-17T11:55:17.502Z,2.83
2018-01-17T11:57:45.829Z,3.00
2018-01-17T12:00:14.182Z,3.00
2018-01-17T12:02:42.522Z,2.90
2018-01-17T12:05:10.857Z,2.47
2018-01-17T12:07:39.760Z,2.77
2018-01-17T12:10:08.520Z,2.67
2018-01-17T12:12:37.202Z,2.33
2018-01-17T12:15:05.685Z,2.30
2018-01-17T12:17:34.286Z,2.77
2018-01-17T12:20:02.935Z,2.40
2018-01-17T12:22:31.507Z,2.50
2018-01-17T12:25:00.304Z,3.13
2018-01-17T12:27:30.003Z,2.57
2018-01-17T12:29:58.609Z,2.70
2018-01-17T12:32:26.928Z,2.77
2018-01-17T12:34:56.030Z,2.87
2018-01-17T12:37:24.402Z,2.60
2018-01-17T12:39:53.170Z,2.83
2018-01-17T12:42:22.838Z,2.90
2018-01-17T12:44:51.161Z,2.80
2018-01-17T12:47:19.885Z,2.83
2018-01-17T12:49:48.213Z,3.27
2018-01-17T12:52:17.732Z,2.53
2018-01-17T12:54:46.061Z,2.90
2018-01-17T12:57:14.402Z,2.90
2018-01-17T12:59:43.266Z,2.83
2018-01-17T13:02:11.933Z,2.40
2018-01-17T13:04:40.325Z,2.60
2018-01-17T13:07:09.078Z,2.80
2018-01-17T13:09:37.457Z,3.10
2018-01-17T13:12:06.069Z,3.00
2018-01-17T13:14:34.409Z,2.73
2018-01-17T13:17:02.773Z,2.50
2018-01-17T13:19:31.097Z,2.70
2018-01-17T13:21:59.450Z,2.50
2018-01-17T13:24:27.777Z,2.60
2018-01-17T13:26:56.137Z,2.67
2018-01-17T13:29:25.137Z,2.53
2018-01-17T13:31:53.882Z,2.27
2018-01-17T13:34:22.249Z,2.87
2018-01-17T13:36:50.587Z,2.50
2018-01-17T13:39:18.966Z,2.70
2018-01-17T13:41:47.356Z,2.50
2018-01-17T13:44:15.705Z,2.40
2018-01-17T13:46:44.281Z,2.63
2018-01-17T13:49:12.617Z,2.60
2018-01-17T13:51:40.963Z,2.60
2018-01-17T13:54:09.691Z,2.80
2018-01-17T13:56:38.009Z,2.70
2018-01-17T13:59:06.389Z,3.37
2018-01-17T14:01:35.126Z,2.87
2018-01-17T14:04:03.450Z,2.83
2018-01-17T14:06:31.787Z,2.87
2018-01-17T14:09:00.151Z,2.70
2018-01-17T14:11:28.785Z,2.43
2018-01-17T14:13:57.113Z,2.70
2018-01-17T14:16:25.438Z,2.83
2018-01-17T14:18:53.766Z,2.80
2018-01-17T14:21:22.116Z,2.70
2018-01-17T14:23:50.498Z,2.40
2018-01-17T14:26:19.214Z,2.73
2018-01-17T14:28:47.533Z,2.63
2018-01-17T14:31:15.940Z,2.47
2018-01-17T14:33:44.673Z,2.67
2018-01-17T14:36:13.025Z,2.20
2018-01-17T14:38:41.357Z,2.70
2018-01-17T14:41:10.123Z,2.43
2018-01-17T14:43:38.525Z,2.50
2018-01-17T14:46:06.870Z,2.10
2018-01-17T14:48:35.210Z,2.20
2018-01-17T14:51:03.562Z,2.23
2018-01-17T14:53:32.512Z,2.27
2018-01-17T14:56:00.889Z,2.03
2018-01-17T14:58:29.514Z,2.37
2018-01-17T15:00:57.862Z,1.97
2018-01-17T15:03:26.202Z,1.90
2018-01-17T15:05:55.225Z,2.10
2018-01-17T15:08:23.573Z,1.90
2018-01-17T15:10:51.894Z,2.10
2018-01-17T15:13:20.241Z,1.90
2018-01-17T15:15:48.650Z,2.00
2018-01-17T15:18:17.026Z,1.80
2018-01-17T15:20:45.381Z,2.20
2018-01-17T15:23:13.727Z,1.90
2018-01-17T15:25:42.866Z,2.10
2018-01-17T15:28:11.222Z,93.37
2018-01-17T15:30:39.869Z,133.90
2018-01-17T15:33:08.225Z,86.97
2018-01-17T15:35:36.618Z,69.60
2018-01-17T15:38:05.384Z,53.03
2018-01-17T15:40:33.711Z,46.70
2018-01-17T15:43:02.074Z,42.53
2018-01-17T15:45:30.830Z,36.60
2018-01-17T15:47:59.605Z,30.50
2018-01-17T15:50:27.962Z,28.17
2018-01-17T15:52:56.612Z,22.47
2018-01-17T15:55:25.469Z,20.77
2018-01-17T15:57:54.089Z,17.93
2018-01-17T16:00:22.842Z,14.80
2018-01-17T16:02:51.229Z,13.50
2018-01-17T16:05:19.589Z,11.33
2018-01-17T16:07:47.961Z,10.93
2018-01-17T16:10:16.345Z,8.97
2018-01-17T16:12:44.692Z,7.70
2018-01-17T16:15:13.021Z,7.47
2018-01-17T16:17:41.377Z,6.50
2018-01-17T16:20:09.766Z,5.80
2018-01-17T16:22:38.374Z,5.30
2018-01-17T16:25:07.649Z,4.80
2018-01-17T16:27:36.037Z,5.00
2018-01-17T16:30:04.369Z,4.30
2018-01-17T16:32:32.719Z,4.70
2018-01-17T16:35:01.563Z,205.73
2018-01-17T16:37:29.921Z,130.77
2018-01-17T16:39:58.801Z,107.20
2018-01-17T16:42:27.155Z,82.53
2018-01-17T16:44:55.905Z,62.83
2018-01-17T16:47:24.513Z,53.47
2018-01-17T16:49:52.839Z,49.50
2018-01-17T16:52:21.186Z,32.87
2018-01-17T16:54:49.985Z,35.10
2018-01-17T16:57:18.322Z,33.00
2018-01-17T16:59:46.716Z,22.40
2018-01-17T17:02:15.465Z,25.10
2018-01-17T17:04:44.147Z,22.23
2018-01-17T17:07:12.499Z,18.67
2018-01-17T17:09:41.612Z,16.50
2018-01-17T17:12:10.028Z,15.00
2018-01-17T17:14:38.435Z,12.80
2018-01-17T17:17:06.803Z,11.60
2018-01-17T17:19:35.594Z,7.20
2018-01-17T17:22:03.993Z,8.90
2018-01-17T17:24:32.328Z,8.93
2018-01-17T17:27:01.158Z,6.30
2018-01-17T17:29:29.573Z,7.67
2018-01-17T17:31:57.930Z,6.30
2018-01-17T17:34:26.288Z,7.07
2018-01-17T17:36:54.677Z,5.33
2018-01-17T17:39:23.025Z,5.67
2018-01-17T17:41:51.804Z,4.50
2018-01-17T17:44:20.512Z,3.90
2018-01-17T17:46:49.242Z,3.83
2018-01-17T17:49:17.566Z,3.87
2018-01-17T17:51:46.018Z,3.17
2018-01-17T17:54:14.346Z,3.43
2018-01-17T17:56:42.828Z,3.40
2018-01-17T17:59:11.156Z,2.77
2018-01-17T18:01:39.512Z,2.93
2018-01-17T18:04:07.870Z,3.17
2018-01-17T18:06:36.190Z,2.77
2018-01-17T18:09:04.774Z,2.60
2018-01-17T18:11:33.461Z,2.80
2018-01-17T18:14:02.235Z,2.67
2018-01-17T18:16:30.598Z,3.23
2018-01-17T18:18:58.928Z,3.00
2018-01-17T18:21:27.689Z,2.60
2018-01-17T18:23:56.077Z,2.87
2018-01-17T18:26:24.446Z,2.70
2018-01-17T18:28:52.789Z,2.53
2018-01-17T18:31:21.149Z,2.40
2018-01-17T18:33:49.494Z,2.90
2018-01-17T18:36:17.861Z,2.60
2018-01-17T18:38:46.389Z,3.20
2018-01-17T18:41:14.737Z,2.83
2018-01-17T18:43:43.054Z,2.60
2018-01-17T18:46:11.380Z,3.13
2018-01-17T18:48:39.939Z,3.10
2018-01-17T18:51:08.672Z,2.90
2018-01-17T18:53:37.432Z,3.40
2018-01-17T18:56:06.690Z,3.40
2018-01-17T18:58:35.278Z,3.43
2018-01-17T19:01:03.675Z,3.70
2018-01-17T19:03:32.168Z,3.33
2018-01-17T19:06:00.597Z,3.60
2018-01-17T19:08:29.734Z,3.73
2018-01-17T19:10:58.710Z,3.63
2018-01-17T19:13:27.054Z,3.97
2018-01-17T19:15:55.489Z,3.97
2018-01-17T19:18:24.073Z,3.90
2018-01-17T19:20:52.966Z,4.40
2018-01-17T19:23:21.330Z,3.83
2018-01-17T19:25:50.049Z,4.47
2018-01-17T19:28:18.419Z,3.93
2018-01-17T19:30:46.746Z,4.70
2018-01-17T19:33:15.133Z,4.47
2018-01-17T19:35:43.473Z,4.40
2018-01-17T19:38:12.222Z,4.23
2018-01-17T19:40:40.578Z,4.83
2018-01-17T19:43:08.926Z,4.70
2018-01-17T19:45:37.289Z,5.23
2018-01-17T19:48:05.689Z,10.87
2018-01-17T19:50:34.030Z,11.13
2018-01-17T19:53:02.805Z,10.83
2018-01-17T19:55:31.160Z,9.70
2018-01-17T19:57:59.544Z,10.00
2018-01-17T20:00:27.932Z,9.10
2018-01-17T20:02:56.298Z,8.43
2018-01-17T20:05:25.501Z,8.47
2018-01-17T20:07:53.866Z,8.40
2018-01-17T20:10:22.223Z,7.73
2018-01-17T20:12:50.565Z,7.30
2018-01-17T20:15:19.334Z,7.43
2018-01-17T20:17:47.893Z,7.83
2018-01-17T20:20:16.275Z,7.37
2018-01-17T20:22:50.265Z,6.50
2018-01-17T20:25:18.636Z,6.70
2018-01-17T20:27:46.970Z,6.80
2018-01-17T20:30:15.339Z,6.37
2018-01-17T20:32:43.783Z,6.20
2018-01-17T20:35:12.160Z,7.03
2018-01-17T20:37:40.601Z,6.50
2018-01-17T20:40:08.958Z,5.67
2018-01-17T20:42:37.306Z,7.27
2018-01-17T20:45:05.668Z,7.07
2018-01-17T20:47:34.001Z,5.73
2018-01-17T20:50:02.357Z,4.40
2018-01-17T20:52:30.951Z,4.70
2018-01-17T20:54:59.286Z,3.97
2018-01-17T20:57:27.626Z,3.50
2018-01-17T20:59:55.960Z,3.67
2018-01-17T21:02:24.309Z,3.80
2018-01-17T21:04:52.644Z,3.73
2018-01-17T21:07:21.222Z,3.40
2018-01-17T21:09:49.839Z,3.20
2018-01-17T21:12:18.590Z,3.10
2018-01-17T21:14:46.939Z,3.40
2018-01-17T21:17:16.227Z,3.17
2018-01-17T21:19:44.542Z,2.83
2018-01-17T21:22:12.861Z,3.07
2018-01-17T21:24:41.606Z,3.17
2018-01-17T21:27:09.928Z,2.50
2018-01-17T21:29:38.673Z,3.13
2018-01-17T21:32:07.045Z,2.40
2018-01-17T21:34:35.389Z,2.30
2018-01-17T21:37:04.202Z,2.40
2018-01-17T21:39:32.560Z,2.63
2018-01-17T21:42:01.153Z,2.17
2018-01-17T21:44:35.296Z,2.20
2018-01-17T21:47:03.901Z,2.70
2018-01-17T21:49:32.241Z,2.30
2018-01-17T21:52:00.571Z,2.10
2018-01-17T21:54:29.322Z,3.00
2018-01-17T21:56:57.682Z,2.33
2018-01-17T21:59:26.023Z,2.30
2018-01-17T22:01:55.666Z,2.50
2018-01-17T22:04:24.586Z,2.30
2018-01-17T22:06:53.289Z,2.30
2018-01-17T22:09:21.610Z,2.30
2018-01-17T22:11:49.967Z,2.50
2018-01-17T22:14:18.315Z,2.33
2018-01-17T22:16:46.901Z,2.43
2018-01-17T22:19:15.380Z,2.50
2018-01-17T22:21:43.750Z,2.17
2018-01-17T22:24:12.110Z,2.00
2018-01-17T22:26:40.434Z,2.20
2018-01-17T22:29:08.922Z,1.97
2018-01-17T22:31:37.714Z,2.53
2018-01-17T22:34:06.705Z,1.80
2018-01-17T22:36:35.460Z,2.27
2018-01-17T22:39:03.833Z,1.93
2018-01-17T22:41:32.537Z,1.97
2018-01-17T22:44:00.861Z,2.10
2018-01-17T22:46:29.544Z,2.33
2018-01-17T22:48:57.921Z,2.40
2018-01-17T22:51:26.557Z,1.67
2018-01-17T22:53:55.351Z,1.63
2018-01-17T22:56:24.077Z,1.80
2018-01-17T22:58:52.447Z,1.57
2018-01-17T23:01:21.237Z,1.60
2018-01-17T23:03:49.981Z,1.70
2018-01-17T23:06:18.357Z,1.80
2018-01-17T23:08:46.717Z,1.50
2018-01-17T23:11:15.034Z,1.53
2018-01-17T23:13:43.798Z,1.63
2018-01-17T23:16:12.137Z,1.87
2018-01-17T23:18:40.769Z,1.83
2018-01-17T23:21:09.121Z,1.43
2018-01-17T23:23:37.449Z,1.30
2018-01-17T23:26:06.185Z,1.50
2018-01-17T23:28:34.793Z,1.47
2018-01-17T23:31:03.113Z,1.23
2018-01-17T23:33:31.874Z,1.20
2018-01-17T23:36:00.647Z,1.23
2018-01-17T23:38:28.997Z,1.40
2018-01-17T23:40:57.335Z,1.40
2018-01-17T23:43:25.716Z,1.40
2018-01-17T23:45:54.059Z,1.20
2018-01-17T23:48:22.393Z,1.30
2018-01-17T23:50:50.802Z,1.30
2018-01-17T23:53:19.125Z,1.53
2018-01-17T23:55:47.439Z,1.20
2018-01-17T23:58:15.778Z,1.23
